RJEC

Asahikawa Airport

Airport
ICAO code
RJEC
IATA Code
AKJ
Summary
ICAO Region
APAC
ICAO Territory
Location

Higashikagura, Hokkaidō

Serving
Asahikawa
Elevation
690 ft
Coordinates
43° 40' 17" N , 142° 27' 13" E
KCC
Metar
Observation
RJEC 090600Z 31014KT 5000 -SHSN FEW003 SCT008 BKN015 M09/M13 Q1022
Station
Asahikawa Airport
Date/Time
2023-02-09 06:00:00
Wind direction
310°
Wind speed
14 kts
Lowest cloud amount
few clouds
Temperature
-9°C
Dew point
-13°C
Humidity
72%
QNH
1022 hPa
Weather condition
n/a

Asahikawa Airport is a single-runway regional airport in Hokkaidō, Japan, straddling the cities of Asahikawa and Higashikagura.

Climatology

Humid continental climate (Köppen climate classification Dfa) - characterized by four seasons: cold, windy, snowy winters, mild springs, hot, humid summers, and crisp and relatively short autumns. Precipitation reaches its lowest in January and February and peaks in summer and latter half of spring.

Runways

Designator Length Width Surface Rops
16/34 2499 61 ASP Yes/Yes

Airport map

Aerial View

SKYbrary Partners:

Safety knowledge contributed by: